Startpagina
METAR-TAF:

METAR-TAF

Vliegvelden :

Szeged, Hongarije

breedte: 46-15N, lengte: 020-06E, hoogte: 82 m

Actueel weer

Dit bericht is 51 minuten geleden gemaakt, om 22:45 UTC
Wind 1 kt uit het noordnoordwesten
Temperatuur 21°C
Vochtigheid 78%
Druk 1018 hPa
Zicht 10 km of meer
geen wolken onder 1500 m en geen cumulonimbus

METAR: LHUD 182245Z 34001KT CAVOK 21/17 Q1018

Tijdstip: 01:36 (23:36 UTC)


TAF: ontbreekt

Waarnemingen en weersverwachtingen van meer dan 4000 vliegvelden (METAR en TAF).

De beschikbare stations zijn de gele en rode punten op de kaart.

Ga met uw muis naar het station om de naam te zien.

Klik dan om waarnemingen en weersverwachtingen te zien.

kaart wijzigen: klik op de groene knoppen met een zwart kruis om in te zoomen, op de groene knop met een streepje om uit te zoomen of op de groene pijlen voor aangrenzende kaarten.


METAR-TAF: